Time;durP1;ratioP1;P1;durP2;ratioP2;P2;SDS_P1;SDS_P2;PMS_P1;PMS_P2;Temp;Humidity;BMP_temperature;BMP_pressure;BME280_temperature;BME280_humidity;BME280_pressure;Samples;Min_cycle;Max_cycle;Signal;HPM_P1;HPM_P2
2021/01/14 00:02:17;;;;;;;0.60;0.50;;;4.30;79.90;;;;;;5062169;28;20044;-67
2021/01/14 00:04:43;;;;;;;0.60;0.60;;;4.30;79.90;;;;;;5062077;28;20040;-67
2021/01/14 00:07:08;;;;;;;0.88;0.60;;;4.20;79.80;;;;;;5057163;28;20099;-66
2021/01/14 00:09:34;;;;;;;0.90;0.70;;;4.20;80.20;;;;;;5063547;28;20057;-67
2021/01/14 00:11:59;;;;;;;0.60;0.50;;;4.30;79.90;;;;;;5061775;28;20040;-67
2021/01/14 00:14:25;;;;;;;0.60;0.60;;;4.20;80.10;;;;;;5063655;28;20100;-67
2021/01/14 00:16:50;;;;;;;0.77;0.63;;;4.20;80.20;;;;;;5061702;28;20045;-67
2021/01/14 00:19:16;;;;;;;0.77;0.60;;;4.30;80.20;;;;;;5061627;28;20051;-66
2021/01/14 00:21:45;;;;;;;0.93;0.68;;;4.20;80.20;;;;;;5063371;28;20123;-67
2021/01/14 00:24:10;;;;;;;0.82;0.70;;;4.20;80.10;;;;;;5062001;28;20347;-67
2021/01/14 00:26:36;;;;;;;0.50;0.50;;;4.20;80.00;;;;;;5063550;28;20044;-67
2021/01/14 00:29:02;;;;;;;0.70;0.55;;;4.30;79.90;;;;;;5062035;28;20327;-67
2021/01/14 00:31:28;;;;;;;0.70;0.68;;;4.20;79.90;;;;;;5060239;28;20045;-67
2021/01/14 00:33:54;;;;;;;0.68;0.50;;;4.20;80.00;;;;;;5062733;28;20047;-67
2021/01/14 00:36:30;;;;;;;0.85;0.60;;;4.30;80.00;;;;;;5062043;28;20053;-67
2021/01/14 00:39:04;;;;;;;0.60;0.60;;;4.30;80.00;;;;;;5061357;28;20052;-66
2021/01/14 00:41:36;;;;;;;0.60;0.60;;;4.20;79.70;;;;;;5061761;28;20228;-67
2021/01/14 00:44:02;;;;;;;0.73;0.68;;;4.40;79.80;;;;;;5061549;28;20036;-67
2021/01/14 00:46:27;;;;;;;0.82;0.60;;;4.30;79.50;;;;;;5061314;28;20344;-67
2021/01/14 00:48:53;;;;;;;0.73;0.60;;;4.40;79.70;;;;;;5062919;28;20044;-67
2021/01/14 00:51:18;;;;;;;2.15;0.70;;;4.30;79.70;;;;;;5061563;28;20045;-67
2021/01/14 00:53:44;;;;;;;0.70;0.60;;;4.20;80.10;;;;;;5062782;28;20075;-67
2021/01/14 00:56:10;;;;;;;1.10;0.80;;;4.20;79.80;;;;;;5061085;28;20355;-67
2021/01/14 00:58:35;;;;;;;1.02;0.70;;;4.30;79.70;;;;;;5061295;28;20048;-67
2021/01/14 01:01:01;;;;;;;0.60;0.60;;;4.30;79.80;;;;;;5061058;28;20040;-67
2021/01/14 01:03:27;;;;;;;1.45;0.60;;;4.40;79.60;;;;;;5062392;28;20087;-66
2021/01/14 01:05:52;;;;;;;0.65;0.50;;;4.30;79.60;;;;;;5062601;28;20082;-67
2021/01/14 01:08:18;;;;;;;0.85;0.70;;;4.30;79.60;;;;;;5061243;28;20045;-67
2021/01/14 01:10:43;;;;;;;0.85;0.65;;;4.30;79.80;;;;;;5060645;28;20405;-67
2021/01/14 01:13:09;;;;;;;0.70;0.65;;;4.30;79.40;;;;;;5060856;28;20049;-66
2021/01/14 01:15:35;;;;;;;1.08;0.75;;;4.30;79.50;;;;;;5062690;28;20389;-67
2021/01/14 01:18:01;;;;;;;1.08;0.70;;;4.20;79.50;;;;;;5061133;28;20151;-66
2021/01/14 01:20:26;;;;;;;0.90;0.80;;;4.20;79.90;;;;;;5062860;28;20197;-67
2021/01/14 01:22:54;;;;;;;1.30;0.77;;;4.10;79.70;;;;;;5061075;28;20056;-67
2021/01/14 01:25:20;;;;;;;1.00;0.80;;;4.10;80.10;;;;;;5059443;28;20116;-67
2021/01/14 01:27:45;;;;;;;1.30;0.90;;;4.10;79.50;;;;;;5062419;28;20092;-67
2021/01/14 01:30:11;;;;;;;0.88;0.80;;;4.20;79.50;;;;;;5061084;28;20049;-67
2021/01/14 01:32:37;;;;;;;1.20;0.90;;;4.10;79.20;;;;;;5062452;28;20053;-67
2021/01/14 01:35:03;;;;;;;1.30;1.00;;;4.10;78.90;;;;;;5059871;28;20366;-67
2021/01/14 01:37:29;;;;;;;2.15;1.10;;;4.00;78.90;;;;;;5060768;28;20371;-67
2021/01/14 01:39:54;;;;;;;1.30;1.10;;;4.10;79.20;;;;;;5062103;28;20036;-67
2021/01/14 01:42:20;;;;;;;1.30;1.20;;;4.10;78.70;;;;;;5060752;28;20087;-67
2021/01/14 01:44:46;;;;;;;1.23;1.10;;;4.10;78.70;;;;;;5062112;28;20029;-67
2021/01/14 01:47:11;;;;;;;1.60;1.15;;;3.90;78.80;;;;;;5060843;28;20044;-66
2021/01/14 01:49:37;;;;;;;1.60;1.38;;;4.00;78.50;;;;;;5060868;28;20335;-66
2021/01/14 01:52:03;;;;;;;1.50;1.38;;;4.00;78.60;;;;;;5060615;28;20045;-66
2021/01/14 01:54:33;;;;;;;2.00;1.50;;;4.00;78.00;;;;;;5062232;28;20293;-66
2021/01/14 01:57:06;;;;;;;1.92;1.60;;;4.00;78.20;;;;;;5060280;28;20044;-66
2021/01/14 01:59:32;;;;;;;1.67;1.48;;;4.10;77.80;;;;;;5060960;28;20116;-67
2021/01/14 02:01:58;;;;;;;2.30;1.75;;;3.90;78.00;;;;;;5060714;28;20052;-67
2021/01/14 02:04:24;;;;;;;1.90;1.67;;;3.90;78.10;;;;;;5060587;28;20041;-67
2021/01/14 02:06:52;;;;;;;2.33;1.80;;;3.90;78.00;;;;;;5062278;28;20041;-67
2021/01/14 02:09:18;;;;;;;2.30;1.80;;;4.00;78.10;;;;;;5059548;28;20052;-66
2021/01/14 02:11:44;;;;;;;3.08;1.60;;;4.00;77.90;;;;;;5061234;28;20048;-67
2021/01/14 02:14:23;;;;;;;2.13;1.70;;;4.00;77.50;;;;;;5061369;28;20041;-67
2021/01/14 02:16:50;;;;;;;2.67;1.77;;;4.00;76.90;;;;;;5047012;28;20063;-67
2021/01/14 02:19:27;;;;;;;2.80;1.80;;;4.00;77.40;;;;;;5046643;28;20032;-66
2021/01/14 02:21:57;;;;;;;2.65;1.80;;;3.90;77.20;;;;;;5049408;28;20044;-66
2021/01/14 02:24:36;;;;;;;1.98;1.60;;;3.90;77.50;;;;;;5046630;28;20332;-67
2021/01/14 02:27:02;;;;;;;2.10;1.63;;;4.00;77.30;;;;;;5046467;28;20036;-66
2021/01/14 02:29:28;;;;;;;2.22;1.50;;;3.90;77.20;;;;;;5065476;28;20044;-67
2021/01/14 02:31:53;;;;;;;1.75;1.40;;;3.90;77.10;;;;;;5046156;28;20045;-67
2021/01/14 02:34:19;;;;;;;2.08;1.20;;;4.00;77.00;;;;;;5063911;28;20108;-67
2021/01/14 02:36:44;;;;;;;3.58;1.40;;;3.90;76.70;;;;;;5065460;28;20041;-66
2021/01/14 02:39:10;;;;;;;1.80;1.30;;;3.90;76.60;;;;;;5063888;28;20040;-66
2021/01/14 02:41:35;;;;;;;2.55;1.38;;;3.90;76.80;;;;;;5065275;28;20097;-67
2021/01/14 02:44:01;;;;;;;2.10;1.85;;;3.90;76.80;;;;;;5063761;28;20231;-67
2021/01/14 02:46:27;;;;;;;1.80;1.40;;;3.90;76.40;;;;;;5063717;28;20041;-67
2021/01/14 02:49:04;;;;;;;1.50;1.23;;;3.90;77.00;;;;;;5063953;28;20049;-67
2021/01/14 02:51:40;;;;;;;1.67;1.40;;;3.90;76.80;;;;;;5063836;28;20098;-66
2021/01/14 02:54:06;;;;;;;2.40;1.45;;;3.90;76.70;;;;;;5063715;28;20044;-66
2021/01/14 02:56:33;;;;;;;2.63;1.80;;;4.00;76.70;;;;;;5065364;28;20056;-66
2021/01/14 02:58:58;;;;;;;2.00;1.77;;;3.90;76.60;;;;;;5063462;28;20037;-67
2021/01/14 03:01:24;;;;;;;1.92;1.70;;;3.90;76.50;;;;;;5061853;28;20201;-66
2021/01/14 03:03:49;;;;;;;2.13;1.70;;;3.80;76.70;;;;;;5064741;28;20033;-67
2021/01/14 03:06:15;;;;;;;2.10;1.80;;;3.90;76.70;;;;;;5063548;28;20033;-67
2021/01/14 03:08:41;;;;;;;2.25;1.80;;;3.90;76.60;;;;;;5065150;28;20048;-67
2021/01/14 03:11:06;;;;;;;1.95;1.65;;;3.90;76.80;;;;;;5063297;28;20045;-66
2021/01/14 03:13:32;;;;;;;2.35;1.80;;;3.90;76.00;;;;;;5063056;28;20041;-67
2021/01/14 03:15:57;;;;;;;2.20;1.80;;;3.90;76.50;;;;;;5064635;28;20036;-67
2021/01/14 03:18:23;;;;;;;2.30;1.90;;;3.90;76.20;;;;;;5063246;28;20205;-66
2021/01/14 03:20:49;;;;;;;2.65;1.90;;;3.90;76.30;;;;;;5064453;28;20235;-67
2021/01/14 03:23:15;;;;;;;2.60;1.92;;;3.90;75.70;;;;;;5045108;28;20048;-67
2021/01/14 03:25:40;;;;;;;2.40;1.90;;;3.90;75.50;;;;;;5061354;28;20037;-67
2021/01/14 03:28:06;;;;;;;2.40;1.67;;;3.90;75.60;;;;;;5062560;28;20197;-67
2021/01/14 03:30:31;;;;;;;4.97;1.50;;;3.90;75.80;;;;;;5064466;28;20036;-66
2021/01/14 03:32:57;;;;;;;3.78;1.80;;;3.90;74.60;;;;;;5062948;28;20041;-67
2021/01/14 03:35:23;;;;;;;2.35;1.63;;;3.90;75.40;;;;;;5063164;28;20383;-66
2021/01/14 03:37:48;;;;;;;2.00;1.50;;;3.70;74.70;;;;;;5062691;28;20071;-67
2021/01/14 03:40:14;;;;;;;2.10;1.80;;;3.70;75.10;;;;;;5062496;28;20223;-67
2021/01/14 03:42:40;;;;;;;2.38;1.73;;;3.70;74.80;;;;;;5064613;28;20092;-66
2021/01/14 03:45:07;;;;;;;5.70;1.80;;;3.80;74.80;;;;;;5062830;28;20037;-66
2021/01/14 03:47:32;;;;;;;2.97;1.90;;;3.80;74.20;;;;;;5064299;28;20246;-67
2021/01/14 03:49:58;;;;;;;4.55;2.10;;;3.80;74.20;;;;;;5062284;28;20037;-67
2021/01/14 03:52:24;;;;;;;3.50;1.80;;;3.70;74.50;;;;;;5062477;28;20040;-67
2021/01/14 03:54:49;;;;;;;3.42;2.00;;;3.70;75.40;;;;;;5063898;28;20100;-67
2021/01/14 03:57:15;;;;;;;3.92;1.92;;;3.70;75.30;;;;;;5062638;28;20040;-66
2021/01/14 03:59:42;;;;;;;2.90;1.98;;;3.60;75.10;;;;;;5064207;28;20061;-67
2021/01/14 04:02:08;;;;;;;2.67;1.88;;;3.70;75.00;;;;;;5062504;28;20040;-67
2021/01/14 04:04:39;;;;;;;2.53;1.98;;;3.80;75.30;;;;;;5060077;28;20033;-66
2021/01/14 04:07:11;;;;;;;3.47;2.25;;;3.80;75.00;;;;;;5062309;28;20224;-66
2021/01/14 04:09:37;;;;;;;2.88;1.95;;;3.80;75.10;;;;;;5062274;28;20112;-67
2021/01/14 04:12:03;;;;;;;3.03;2.20;;;3.80;74.80;;;;;;5062213;28;20102;-66
2021/01/14 04:14:28;;;;;;;3.13;2.20;;;3.80;75.40;;;;;;5063510;28;20037;-67
2021/01/14 04:16:54;;;;;;;3.35;2.15;;;3.70;74.90;;;;;;5061964;28;20060;-66
2021/01/14 04:19:20;;;;;;;3.65;2.85;;;3.70;75.50;;;;;;5061851;28;20104;-66
2021/01/14 04:21:46;;;;;;;5.40;2.50;;;3.80;74.90;;;;;;5063569;28;20037;-67
2021/01/14 04:24:11;;;;;;;4.13;2.55;;;3.80;75.10;;;;;;5062016;28;20045;-66
2021/01/14 04:26:37;;;;;;;6.50;2.70;;;3.70;75.20;;;;;;5063322;28;20065;-67
2021/01/14 04:29:03;;;;;;;4.55;2.90;;;3.70;74.80;;;;;;5061619;28;20044;-67
2021/01/14 04:31:29;;;;;;;4.10;2.97;;;3.70;74.70;;;;;;5061439;28;20045;-67
2021/01/14 04:33:55;;;;;;;4.55;2.78;;;3.70;75.00;;;;;;5063240;28;20044;-67
2021/01/14 04:36:20;;;;;;;4.68;2.80;;;3.80;75.10;;;;;;5060291;28;20044;-67
2021/01/14 04:38:46;;;;;;;3.92;3.03;;;3.80;75.00;;;;;;5062960;28;20340;-67
2021/01/14 04:41:11;;;;;;;4.22;2.70;;;3.80;74.60;;;;;;5061540;28;20394;-67
2021/01/14 04:43:37;;;;;;;4.93;2.90;;;3.90;75.00;;;;;;5060451;28;20224;-67
2021/01/14 04:46:07;;;;;;;3.22;2.53;;;3.70;74.60;;;;;;5061413;28;20037;-66
2021/01/14 04:49:02;;;;;;;6.28;2.97;;;3.60;75.50;;;;;;5062757;28;20209;-67
2021/01/14 04:51:28;;;;;;;3.72;2.67;;;3.60;76.00;;;;;;5058427;28;20047;-66
2021/01/14 04:53:53;;;;;;;5.00;2.70;;;3.70;76.10;;;;;;5061538;28;20033;-66
2021/01/14 04:56:19;;;;;;;3.30;2.50;;;3.60;75.90;;;;;;5061535;28;20040;-67
2021/01/14 04:58:49;;;;;;;3.70;2.92;;;3.60;76.30;;;;;;5061038;28;20041;-67
2021/01/14 05:01:19;;;;;;;5.03;2.92;;;3.60;76.70;;;;;;5061047;28;20032;-66
2021/01/14 05:03:46;;;;;;;4.22;2.92;;;3.50;77.60;;;;;;5062481;28;20037;-67
2021/01/14 05:06:16;;;;;;;4.70;2.90;;;3.60;78.40;;;;;;5061328;28;20037;-67
2021/01/14 05:08:41;;;;;;;6.35;2.63;;;3.60;79.10;;;;;;5062560;28;20070;-67
2021/01/14 05:11:07;;;;;;;6.03;2.70;;;3.60;78.70;;;;;;5043115;28;20270;-67
2021/01/14 05:13:32;;;;;;;4.25;2.80;;;3.60;78.50;;;;;;5059678;28;20037;-67
2021/01/14 05:15:58;;;;;;;5.40;2.88;;;3.60;78.20;;;;;;5062549;28;20066;-67
2021/01/14 05:18:24;;;;;;;4.22;3.00;;;3.60;77.50;;;;;;5060946;28;20040;-67
2021/01/14 05:20:49;;;;;;;5.43;2.58;;;3.60;77.90;;;;;;5062825;28;20033;-67
2021/01/14 05:23:19;;;;;;;4.45;2.70;;;3.60;77.20;;;;;;5061113;28;20056;-66
2021/01/14 05:25:52;;;;;;;4.30;2.67;;;3.60;77.60;;;;;;5059810;28;20033;-66
2021/01/14 05:28:18;;;;;;;4.10;2.50;;;3.50;77.50;;;;;;5060801;28;20310;-67
2021/01/14 05:30:44;;;;;;;3.58;2.78;;;3.50;79.10;;;;;;5062724;28;20324;-67
2021/01/14 05:33:15;;;;;;;6.13;2.67;;;3.50;79.00;;;;;;5061210;28;20043;-66
2021/01/14 05:35:48;;;;;;;4.15;2.60;;;3.60;78.60;;;;;;5062687;28;20033;-67
2021/01/14 05:38:25;;;;;;;4.88;3.10;;;3.50;78.40;;;;;;5061029;28;20033;-67
2021/01/14 05:41:18;;;;;;;4.60;2.72;;;3.50;77.70;;;;;;5060908;28;20039;-67
2021/01/14 05:43:48;;;;;;;4.15;2.92;;;3.40;77.30;;;;;;5060643;28;20037;-67
2021/01/14 05:46:18;;;;;;;8.43;3.13;;;3.40;77.70;;;;;;5060820;28;20036;-66
2021/01/14 05:48:44;;;;;;;4.65;3.28;;;3.50;77.50;;;;;;5063937;28;20037;-67
2021/01/14 05:51:17;;;;;;;7.05;3.20;;;3.50;77.40;;;;;;5064839;28;20040;-67
2021/01/14 05:54:03;;;;;;;5.20;3.55;;;3.40;77.60;;;;;;5066020;28;20040;-67
2021/01/14 05:56:35;;;;;;;5.97;3.35;;;3.50;77.20;;;;;;5065032;28;20036;-67
2021/01/14 05:59:08;;;;;;;5.47;3.72;;;3.50;77.40;;;;;;5064358;28;20033;-67
2021/01/14 06:01:35;;;;;;;7.07;3.70;;;3.40;78.50;;;;;;5063322;28;20029;-67
2021/01/14 06:04:22;;;;;;;9.25;4.20;;;3.50;78.40;;;;;;5064600;28;20037;-66
2021/01/14 06:06:50;;;;;;;5.32;3.60;;;3.50;77.60;;;;;;5065811;28;20033;-67
2021/01/14 06:09:16;;;;;;;6.28;3.60;;;3.50;76.90;;;;;;5064560;28;20029;-67
2021/01/14 06:11:42;;;;;;;7.75;3.90;;;3.40;76.80;;;;;;5066126;28;20048;-67
2021/01/14 06:14:31;;;;;;;4.45;3.40;;;3.40;76.90;;;;;;5064402;28;20320;-67
2021/01/14 06:16:58;;;;;;;5.63;3.45;;;3.40;76.90;;;;;;5063435;28;20041;-67
2021/01/14 06:19:25;;;;;;;4.15;3.20;;;3.40;76.10;;;;;;5064251;28;20144;-66
2021/01/14 06:21:55;;;;;;;6.50;3.50;;;3.40;75.80;;;;;;5064794;28;20037;-67
2021/01/14 06:24:30;;;;;;;6.63;3.80;;;3.40;75.80;;;;;;5064512;28;20108;-66
2021/01/14 06:26:57;;;;;;;6.85;3.90;;;3.30;75.50;;;;;;5064260;28;20368;-66
2021/01/14 06:29:34;;;;;;;7.75;3.65;;;3.40;75.90;;;;;;5065189;28;20041;-67
2021/01/14 06:32:15;;;;;;;5.60;3.97;;;3.40;75.60;;;;;;5046400;28;20041;-68
2021/01/14 06:34:45;;;;;;;6.30;3.90;;;3.30;75.30;;;;;;5063719;28;20087;-68
2021/01/14 06:37:19;;;;;;;6.05;4.30;;;3.40;75.80;;;;;;5029719;28;20375;-68
2021/01/14 06:39:51;;;;;;;7.20;3.67;;;3.40;74.80;;;;;;5064927;28;20228;-68
2021/01/14 06:42:24;;;;;;;5.55;4.07;;;3.40;75.10;;;;;;5062827;28;20056;-66
2021/01/14 06:44:56;;;;;;;9.05;4.65;;;3.40;74.70;;;;;;5065126;28;20041;-67
2021/01/14 06:47:29;;;;;;;9.27;4.75;;;3.40;74.60;;;;;;5062712;28;20109;-68
2021/01/14 06:50:18;;;;;;;7.88;4.53;;;3.40;75.10;;;;;;5063496;28;20331;-68
2021/01/14 06:52:54;;;;;;;10.07;4.70;;;3.40;75.20;;;;;;5056739;28;20037;-68
2021/01/14 06:55:22;;;;;;;8.82;4.90;;;3.40;74.50;;;;;;5046417;28;20037;-67
2021/01/14 06:58:07;;;;;;;7.70;4.50;;;3.40;74.50;;;;;;5064890;28;20044;-68
2021/01/14 07:00:41;;;;;;;7.53;4.63;;;3.40;74.40;;;;;;5062270;28;20032;-66
2021/01/14 07:03:13;;;;;;;6.05;4.43;;;3.40;74.10;;;;;;5061955;28;20316;-68
2021/01/14 07:06:06;;;;;;;9.27;5.13;;;3.40;74.20;;;;;;5065014;28;20033;-64
2021/01/14 07:08:31;;;;;;;7.57;4.65;;;3.40;73.60;;;;;;5063981;28;20033;-66
2021/01/14 07:10:59;;;;;;;10.90;4.93;;;3.40;72.90;;;;;;5062874;28;20060;-63
2021/01/14 07:13:30;;;;;;;15.85;5.72;;;3.40;73.50;;;;;;5063111;28;20032;-63
2021/01/14 07:15:57;;;;;;;7.32;4.50;;;3.40;73.00;;;;;;5063406;28;20040;-66
2021/01/14 07:18:27;;;;;;;10.75;5.13;;;3.40;73.00;;;;;;5061559;28;20056;-66
2021/01/14 07:20:53;;;;;;;9.05;5.57;;;3.40;73.50;;;;;;5064479;28;20047;-67
2021/01/14 07:23:18;;;;;;;9.75;5.40;;;3.30;73.40;;;;;;5045525;28;20079;-66
2021/01/14 07:25:44;;;;;;;10.63;5.32;;;3.40;74.00;;;;;;5045234;28;20037;-66
2021/01/14 07:28:10;;;;;;;9.13;5.35;;;3.40;73.50;;;;;;5061356;28;20263;-66
2021/01/14 07:30:35;;;;;;;7.25;5.00;;;3.40;73.30;;;;;;5063289;28;20036;-66
2021/01/14 07:33:04;;;;;;;11.88;5.38;;;3.50;73.10;;;;;;5062922;28;20037;-66
2021/01/14 07:35:41;;;;;;;11.43;5.70;;;3.50;73.00;;;;;;5064285;28;20143;-66
2021/01/14 07:38:08;;;;;;;13.43;6.15;;;3.50;73.00;;;;;;5062675;28;20096;-66
2021/01/14 07:40:34;;;;;;;8.20;4.90;;;3.40;72.70;;;;;;5062634;28;20083;-66
2021/01/14 07:43:13;;;;;;;10.13;5.63;;;3.40;72.60;;;;;;5062814;28;20036;-66
2021/01/14 07:45:39;;;;;;;12.25;5.65;;;3.40;73.00;;;;;;5063108;28;20232;-66
2021/01/14 07:48:17;;;;;;;8.25;5.30;;;3.40;73.10;;;;;;5062425;28;20060;-66
2021/01/14 07:50:56;;;;;;;8.82;5.18;;;3.40;72.90;;;;;;5064150;28;20087;-68
2021/01/14 07:53:21;;;;;;;9.40;5.07;;;3.40;73.20;;;;;;5045342;28;20247;-69
2021/01/14 07:55:47;;;;;;;7.93;4.72;;;3.50;73.30;;;;;;5044573;28;20025;-69
2021/01/14 07:58:21;;;;;;;9.27;5.28;;;3.40;73.60;;;;;;5062092;28;20040;-68
2021/01/14 08:01:03;;;;;;;6.75;4.53;;;3.50;73.30;;;;;;5063589;28;20036;-66
2021/01/14 08:03:55;;;;;;;8.40;5.22;;;3.50;72.80;;;;;;5062802;28;20059;-63
2021/01/14 08:06:24;;;;;;;;;;;3.50;73.00;;;;;;5060626;28;20053;-64
2021/01/14 08:09:06;;;;;;;7.78;4.80;;;3.50;73.00;;;;;;5062830;28;20065;-64
2021/01/14 08:11:32;;;;;;;7.57;4.90;;;3.50;73.10;;;;;;5060929;28;20371;-64
2021/01/14 08:14:10;;;;;;;8.05;4.93;;;3.50;73.00;;;;;;5060939;28;20100;-63
2021/01/14 08:16:39;;;;;;;8.70;4.70;;;3.60;72.30;;;;;;5061797;28;20032;-61
2021/01/14 08:19:11;;;;;;;6.57;4.88;;;3.50;71.60;;;;;;5061849;28;20088;-63
2021/01/14 08:21:37;;;;;;;9.80;4.90;;;3.50;71.70;;;;;;5062218;28;20328;-62
2021/01/14 08:24:03;;;;;;;7.95;5.00;;;3.50;70.90;;;;;;5061791;28;20061;-63
2021/01/14 08:26:28;;;;;;;8.23;4.90;;;3.50;71.30;;;;;;5063406;28;20044;-64
2021/01/14 08:29:00;;;;;;;7.95;4.78;;;3.50;70.90;;;;;;5061894;28;20041;-62
2021/01/14 08:31:38;;;;;;;9.20;5.18;;;3.50;71.00;;;;;;5060274;28;20340;-61
2021/01/14 08:34:07;;;;;;;7.65;4.80;;;3.40;71.40;;;;;;5061438;28;20059;-62
2021/01/14 08:36:41;;;;;;;7.20;4.68;;;3.40;71.50;;;;;;5062059;28;20201;-62
2021/01/14 08:39:08;;;;;;;9.77;4.43;;;3.50;71.40;;;;;;5061794;28;20112;-61
2021/01/14 08:41:38;;;;;;;8.70;4.65;;;3.40;71.00;;;;;;5061876;28;20087;-62
2021/01/14 08:44:04;;;;;;;10.90;4.47;;;3.40;70.40;;;;;;5060579;28;20044;-61
2021/01/14 08:46:46;;;;;;;8.02;4.80;;;3.40;70.60;;;;;;5060280;28;20044;-62
2021/01/14 08:49:11;;;;;;;;;;;3.50;70.60;;;;;;5060432;28;20033;-61
2021/01/14 08:51:39;;;;;;;13.00;4.82;;;3.50;70.10;;;;;;5062867;28;20115;-61
2021/01/14 08:54:05;;;;;;;8.40;4.68;;;3.40;69.60;;;;;;5061106;28;20088;-61
2021/01/14 08:56:31;;;;;;;10.20;4.97;;;3.40;70.40;;;;;;5062756;28;20040;-61
2021/01/14 08:59:19;;;;;;;9.68;5.55;;;3.50;70.00;;;;;;5061495;28;20064;-62
2021/01/14 09:01:44;;;;;;;8.05;4.47;;;3.40;69.90;;;;;;5060720;28;20056;-63
2021/01/14 09:04:10;;;;;;;6.22;4.57;;;3.50;70.40;;;;;;5060940;28;20052;-63
2021/01/14 09:06:43;;;;;;;9.55;5.20;;;3.50;70.00;;;;;;5062842;28;20040;-63
2021/01/14 09:09:10;;;;;;;8.43;5.07;;;3.50;70.60;;;;;;5061320;28;20043;-63
2021/01/14 09:11:36;;;;;;;8.90;4.90;;;3.50;70.10;;;;;;5062308;28;20209;-63
2021/01/14 09:14:12;;;;;;;8.75;4.65;;;3.50;70.20;;;;;;5061011;28;20044;-63
2021/01/14 09:16:38;;;;;;;7.85;4.65;;;3.40;70.20;;;;;;5060829;28;20083;-63
2021/01/14 09:19:14;;;;;;;7.55;5.00;;;3.40;70.70;;;;;;5060587;28;20033;-63
2021/01/14 09:21:39;;;;;;;8.32;4.70;;;3.50;70.90;;;;;;5062682;28;20332;-63
2021/01/14 09:24:09;;;;;;;7.43;4.50;;;3.40;71.10;;;;;;5060677;28;20033;-63
2021/01/14 09:26:38;;;;;;;6.70;4.55;;;3.50;71.70;;;;;;5062508;28;20063;-63
2021/01/14 09:29:04;;;;;;;6.95;4.28;;;3.60;71.50;;;;;;5061002;28;20107;-63
2021/01/14 09:31:30;;;;;;;7.95;4.60;;;3.60;71.40;;;;;;5058939;28;20041;-64
2021/01/14 09:33:56;;;;;;;8.65;4.82;;;3.50;71.40;;;;;;5061498;28;20199;-64
2021/01/14 09:36:22;;;;;;;7.20;4.50;;;3.60;70.90;;;;;;5059929;28;20029;-62
2021/01/14 09:38:54;;;;;;;11.60;5.30;;;3.50;71.60;;;;;;5062777;28;20063;-62
2021/01/14 09:41:33;;;;;;;7.80;4.70;;;3.50;71.80;;;;;;5061127;28;20324;-62
2021/01/14 09:44:00;;;;;;;7.03;4.78;;;3.50;70.70;;;;;;5061039;28;20382;-62
2021/01/14 09:46:37;;;;;;;6.30;4.57;;;3.40;69.70;;;;;;5059342;28;20037;-62
2021/01/14 09:49:10;;;;;;;5.80;4.00;;;3.50;69.10;;;;;;5060632;28;20049;-63
2021/01/14 09:51:36;;;;;;;8.98;4.90;;;3.50;68.40;;;;;;5062422;28;20069;-62
2021/01/14 09:54:05;;;;;;;11.40;4.75;;;3.40;68.50;;;;;;5061131;28;20197;-62
2021/01/14 09:56:32;;;;;;;6.80;4.30;;;3.40;68.80;;;;;;5062079;28;20103;-63
2021/01/14 09:59:01;;;;;;;8.90;4.78;;;3.40;69.20;;;;;;5059421;28;20033;-65
2021/01/14 10:01:29;;;;;;;9.43;4.53;;;3.40;70.60;;;;;;5060432;28;20283;-66
2021/01/14 10:04:14;;;;;;;7.20;4.30;;;3.40;69.90;;;;;;5044630;28;20048;-63
2021/01/14 10:06:44;;;;;;;6.95;4.30;;;3.40;70.50;;;;;;5059717;28;20270;-62
2021/01/14 10:09:11;;;;;;;8.80;4.30;;;3.50;69.30;;;;;;5026794;28;20186;-63
2021/01/14 10:11:36;;;;;;;7.20;4.43;;;3.60;68.70;;;;;;5061927;28;20049;-63
2021/01/14 10:14:02;;;;;;;9.45;4.57;;;3.60;69.10;;;;;;5059274;28;20227;-64
2021/01/14 10:16:28;;;;;;;9.63;4.90;;;3.60;68.20;;;;;;5060549;28;20048;-61
2021/01/14 10:19:07;;;;;;;7.38;4.55;;;3.60;68.80;;;;;;5062261;28;20037;-63
2021/01/14 10:21:33;;;;;;;6.75;3.85;;;3.60;68.90;;;;;;5043592;28;20033;-62
2021/01/14 10:23:59;;;;;;;12.13;5.15;;;3.60;69.30;;;;;;5059624;28;20135;-63
2021/01/14 10:26:26;;;;;;;9.77;5.22;;;3.60;69.50;;;;;;5061909;28;20037;-61
2021/01/14 10:28:51;;;;;;;7.38;4.47;;;3.60;69.90;;;;;;5060476;28;20096;-62
2021/01/14 10:31:33;;;;;;;8.18;4.30;;;3.60;69.30;;;;;;5060220;28;20041;-63
2021/01/14 10:33:59;;;;;;;;;;;3.50;70.10;;;;;;5044332;28;20349;-62
2021/01/14 10:36:24;;;;;;;8.68;4.55;;;3.50;69.70;;;;;;5063925;28;19904;-62
2021/01/14 10:38:50;;;;;;;9.25;4.57;;;3.50;70.70;;;;;;5065250;28;20021;-66
2021/01/14 10:41:22;;;;;;;9.18;4.57;;;3.50;70.80;;;;;;5060927;28;20208;-67
2021/01/14 10:43:47;;;;;;;7.15;4.45;;;3.40;70.10;;;;;;5045832;28;20056;-65
2021/01/14 10:46:22;;;;;;;7.53;4.28;;;3.50;69.40;;;;;;5063494;28;20060;-63
2021/01/14 10:48:48;;;;;;;6.00;2.88;;;3.50;69.70;;;;;;5065032;28;20044;-62
2021/01/14 10:51:13;;;;;;;4.57;2.60;;;3.60;68.90;;;;;;5063488;28;20053;-63
2021/01/14 10:53:41;;;;;;;4.82;2.45;;;3.40;67.30;;;;;;5064035;28;20045;-62
2021/01/14 10:56:10;;;;;;;3.53;2.20;;;3.30;67.60;;;;;;5063536;28;20047;-62
2021/01/14 10:58:37;;;;;;;3.60;1.90;;;3.30;67.90;;;;;;5062108;28;20041;-63
2021/01/14 11:01:13;;;;;;;3.05;1.90;;;3.10;70.30;;;;;;5062241;28;20044;-63
2021/01/14 11:03:39;;;;;;;3.60;1.90;;;3.00;70.40;;;;;;5061961;28;20259;-63
2021/01/14 11:06:04;;;;;;;4.45;2.20;;;3.10;70.10;;;;;;5063541;28;20092;-63
2021/01/14 11:08:46;;;;;;;3.17;1.75;;;3.10;68.80;;;;;;5059635;28;20051;-62
2021/01/14 11:11:13;;;;;;;6.13;2.20;;;3.20;69.10;;;;;;5063022;28;20053;-64
2021/01/14 11:13:49;;;;;;;3.67;1.60;;;3.20;68.70;;;;;;5064855;28;20033;-63
2021/01/14 11:16:16;;;;;;;2.72;1.60;;;3.20;68.00;;;;;;5063579;28;20309;-63
2021/01/14 11:18:43;;;;;;;2.90;1.60;;;3.20;68.50;;;;;;5064603;28;20044;-63
2021/01/14 11:21:09;;;;;;;3.75;1.50;;;3.10;67.70;;;;;;5063090;28;20029;-63
2021/01/14 11:23:35;;;;;;;3.75;1.55;;;3.10;68.70;;;;;;5063135;28;20033;-63
2021/01/14 11:26:03;;;;;;;2.22;1.27;;;2.90;68.20;;;;;;5064502;28;20051;-63
2021/01/14 11:28:33;;;;;;;3.65;1.50;;;2.90;68.20;;;;;;5063221;28;20104;-63
2021/01/14 11:30:59;;;;;;;3.50;1.33;;;2.90;69.70;;;;;;5064211;28;20048;-63
2021/01/14 11:33:24;;;;;;;2.45;1.17;;;2.80;69.50;;;;;;5063191;28;20060;-63
2021/01/14 11:35:50;;;;;;;1.83;1.23;;;2.90;69.60;;;;;;5062838;28;20036;-63
2021/01/14 11:38:16;;;;;;;2.90;1.45;;;2.80;68.50;;;;;;5062454;28;20095;-63
2021/01/14 11:40:41;;;;;;;3.17;1.65;;;2.90;69.20;;;;;;5064151;28;20037;-63
2021/01/14 11:43:07;;;;;;;3.50;1.55;;;2.90;68.60;;;;;;5062324;28;20272;-64
2021/01/14 11:45:32;;;;;;;3.35;1.50;;;2.80;70.50;;;;;;5063923;28;20040;-63
2021/01/14 11:47:58;;;;;;;2.40;1.30;;;2.70;72.00;;;;;;5062491;28;20032;-64
2021/01/14 11:50:23;;;;;;;4.15;1.40;;;2.60;72.10;;;;;;5062644;28;20060;-64
2021/01/14 11:52:49;;;;;;;3.10;1.52;;;2.60;73.10;;;;;;5064230;28;20033;-62
2021/01/14 11:55:15;;;;;;;4.97;1.40;;;2.20;71.00;;;;;;5062508;28;20212;-63
2021/01/14 11:57:41;;;;;;;2.88;1.40;;;2.20;74.50;;;;;;5063481;28;20040;-64
2021/01/14 12:00:09;;;;;;;2.33;1.30;;;2.30;74.80;;;;;;5062273;28;20037;-63
2021/01/14 12:02:35;;;;;;;3.10;1.40;;;2.40;78.00;;;;;;5062234;28;20036;-63
2021/01/14 12:05:00;;;;;;;2.42;1.30;;;2.40;75.20;;;;;;5063659;28;20366;-64
2021/01/14 12:07:26;;;;;;;2.22;1.00;;;2.40;76.50;;;;;;5061376;28;20071;-64
2021/01/14 12:09:52;;;;;;;2.05;1.20;;;2.30;74.80;;;;;;5063316;28;20363;-64
2021/01/14 12:12:17;;;;;;;2.70;1.40;;;2.40;73.70;;;;;;5062195;28;20052;-64
2021/01/14 12:14:43;;;;;;;3.60;1.30;;;2.40;75.30;;;;;;5061706;28;20036;-65
2021/01/14 12:17:08;;;;;;;3.67;1.45;;;2.40;74.80;;;;;;5063439;28;20104;-64
2021/01/14 12:19:34;;;;;;;6.35;1.60;;;2.40;73.70;;;;;;5060612;28;20037;-64
2021/01/14 12:22:03;;;;;;;2.58;1.40;;;2.50;73.10;;;;;;5062037;28;20083;-66
2021/01/14 12:24:29;;;;;;;3.90;1.30;;;2.40;72.90;;;;;;5063415;28;20048;-64
2021/01/14 12:26:54;;;;;;;4.88;1.50;;;2.50;73.40;;;;;;5061988;28;20108;-63
2021/01/14 12:29:20;;;;;;;2.10;1.23;;;2.60;72.90;;;;;;5058417;28;20037;-63
2021/01/14 12:31:45;;;;;;;4.68;1.30;;;2.70;71.70;;;;;;5061663;28;20041;-68
2021/01/14 12:34:11;;;;;;;2.25;1.20;;;2.60;71.20;;;;;;5060521;28;20037;-64
2021/01/14 12:36:37;;;;;;;3.25;1.23;;;2.50;72.20;;;;;;5062859;28;20040;-65
2021/01/14 12:39:02;;;;;;;3.75;1.25;;;2.50;71.50;;;;;;5062806;28;20310;-64
2021/01/14 12:41:32;;;;;;;3.35;1.33;;;2.50;72.20;;;;;;5060902;28;20105;-64
2021/01/14 12:43:57;;;;;;;5.50;1.50;;;2.60;71.30;;;;;;5061203;28;20340;-65
2021/01/14 12:46:35;;;;;;;5.75;1.25;;;2.70;71.30;;;;;;5059342;28;20065;-64
2021/01/14 12:49:01;;;;;;;3.15;1.50;;;2.70;70.40;;;;;;5058456;28;20033;-65
2021/01/14 12:51:26;;;;;;;1.90;1.10;;;2.70;69.40;;;;;;5062327;28;20056;-64
2021/01/14 12:53:52;;;;;;;6.22;1.38;;;2.50;69.60;;;;;;5062653;28;20059;-63
2021/01/14 12:56:17;;;;;;;4.93;1.30;;;2.50;69.80;;;;;;5061269;28;20332;-64
2021/01/14 12:58:43;;;;;;;3.33;1.20;;;2.60;69.40;;;;;;5059816;28;20252;-63
2021/01/14 13:01:08;;;;;;;1.80;1.00;;;2.50;68.50;;;;;;5060048;28;20036;-63
2021/01/14 13:03:34;;;;;;;4.00;1.00;;;2.50;68.90;;;;;;5062580;28;20032;-63
2021/01/14 13:06:00;;;;;;;4.00;1.13;;;2.50;68.50;;;;;;5061819;28;20045;-63